Time;durP1;ratioP1;P1;durP2;ratioP2;P2;SDS_P1;SDS_P2;PMS_P1;PMS_P2;Temp;Humidity;BMP_temperature;BMP_pressure;BME280_temperature;BME280_humidity;BME280_pressure;Samples;Min_cycle;Max_cycle;Signal;HPM_P1;HPM_P2
2022/04/12 00:01:08;;;;;;;2.58;1.48;;;14.20;58.50;;;;;;5054791;28;20053;-71
2022/04/12 00:03:35;;;;;;;2.35;1.63;;;;;;;;;;5053082;28;20393;-71
2022/04/12 00:06:03;;;;;;;2.42;1.63;;;;;;;;;;5055348;28;20409;-71
2022/04/12 00:08:29;;;;;;;3.08;1.48;;;14.20;52.70;;;;;;5053441;28;20059;-71
2022/04/12 00:10:58;;;;;;;2.63;1.63;;;14.20;58.80;;;;;;5037149;28;20057;-71
2022/04/12 00:13:25;;;;;;;2.03;1.42;;;14.30;54.10;;;;;;5053840;28;20057;-71
2022/04/12 00:15:52;;;;;;;1.83;1.27;;;14.00;58.40;;;;;;5053838;28;20063;-72
2022/04/12 00:21:04;;;;;;;2.30;1.50;;;;;;;;;;5053620;28;20057;-71
2022/04/12 00:23:30;;;;;;;2.70;1.40;;;14.30;58.70;;;;;;5053566;28;20063;-72
2022/04/12 00:25:58;;;;;;;2.72;1.70;;;14.20;51.30;;;;;;5053625;28;20068;-70
2022/04/12 00:28:26;;;;;;;1.40;1.30;;;;;;;;;;5052988;28;20053;-70
2022/04/12 00:30:53;;;;;;;3.28;1.52;;;;;;;;;;5052843;28;20044;-70
2022/04/12 00:33:20;;;;;;;2.13;1.75;;;14.30;58.90;;;;;;5052390;28;20048;-72
2022/04/12 00:35:47;;;;;;;2.20;1.50;;;14.20;58.60;;;;;;5052062;28;20447;-72
2022/04/12 00:38:22;;;;;;;1.95;1.60;;;13.90;58.50;;;;;;5052100;28;20053;-72
2022/04/12 00:40:49;;;;;;;2.50;1.60;;;14.10;58.60;;;;;;5052007;28;20057;-72
2022/04/12 00:43:18;;;;;;;2.03;1.60;;;14.20;51.20;;;;;;5053319;28;20128;-70
2022/04/12 00:45:45;;;;;;;3.35;1.63;;;14.00;58.80;;;;;;5053148;28;20517;-72
2022/04/12 00:48:12;;;;;;;1.77;1.48;;;;;;;;;;5052944;28;20045;-72
2022/04/12 00:50:39;;;;;;;2.25;1.60;;;14.20;58.80;;;;;;5051830;28;20063;-72
2022/04/12 00:53:06;;;;;;;3.42;1.50;;;14.20;51.20;;;;;;5050162;28;20057;-72
2022/04/12 00:55:34;;;;;;;2.13;1.63;;;;;;;;;;5052991;28;20510;-70
2022/04/12 00:58:05;;;;;;;2.00;1.50;;;14.30;58.70;;;;;;5051956;28;20505;-72
2022/04/12 01:00:33;;;;;;;2.58;1.60;;;14.50;59.00;;;;;;5051879;28;20059;-72
2022/04/12 01:03:00;;;;;;;2.22;1.50;;;;;;;;;;5051457;28;20453;-70
2022/04/12 01:05:27;;;;;;;1.98;1.50;;;14.00;58.70;;;;;;5051759;28;20532;-72
2022/04/12 01:07:54;;;;;;;2.22;1.58;;;14.20;51.20;;;;;;5051729;28;20090;-70
2022/04/12 01:10:22;;;;;;;3.30;1.70;;;14.20;58.40;;;;;;5049674;28;20060;-72
2022/04/12 01:12:50;;;;;;;1.92;1.48;;;;;;;;;;5052812;28;20051;-72
2022/04/12 01:15:17;;;;;;;2.58;1.60;;;14.00;51.70;;;;;;5051705;28;20053;-71
2022/04/12 01:17:46;;;;;;;2.35;1.45;;;14.20;58.50;;;;;;5051433;28;20414;-72
2022/04/12 01:20:13;;;;;;;2.58;1.67;;;;;;;;;;5051408;28;20486;-71
2022/04/12 01:22:44;;;;;;;2.35;1.70;;;14.50;59.00;;;;;;5051312;28;20052;-72
2022/04/12 01:25:12;;;;;;;2.67;1.42;;;14.20;51.20;;;;;;5049876;28;20063;-72
2022/04/12 01:27:39;;;;;;;1.52;1.40;;;;;;;;;;5045293;28;20045;-72
2022/04/12 01:30:07;;;;;;;3.75;1.50;;;15.10;52.10;;;;;;4997192;28;1035130;-72
2022/04/12 01:32:33;;;;;;;2.85;1.80;;;14.00;58.70;;;;;;5033753;28;20053;-71
2022/04/12 01:35:00;;;;;;;2.15;1.70;;;14.20;58.70;;;;;;5033380;28;20045;-72
2022/04/12 01:37:27;;;;;;;3.65;1.73;;;14.20;58.90;;;;;;5033830;28;20059;-72
2022/04/12 01:39:54;;;;;;;2.92;1.90;;;;;;;;;;5032262;28;20169;-71
2022/04/12 01:42:22;;;;;;;2.03;1.52;;;15.70;53.60;;;;;;5034490;28;20077;-72
2022/04/12 01:44:48;;;;;;;1.90;1.70;;;14.20;58.60;;;;;;5032030;28;20060;-72
2022/04/12 01:47:17;;;;;;;2.33;1.60;;;;;;;;;;5033567;28;20060;-71
2022/04/12 01:49:44;;;;;;;2.58;1.70;;;;;;;;;;5032959;28;20500;-72
2022/04/12 01:52:11;;;;;;;2.63;1.63;;;14.50;58.80;;;;;;5031919;28;20080;-72
2022/04/12 01:54:38;;;;;;;2.35;1.70;;;;;;;;;;5033258;28;20079;-71
2022/04/12 01:57:05;;;;;;;3.72;1.70;;;14.10;58.80;;;;;;5032149;28;20406;-72
2022/04/12 01:59:33;;;;;;;2.13;1.58;;;14.10;58.60;;;;;;5031101;28;20080;-72
2022/04/12 02:02:00;;;;;;;1.98;1.50;;;14.10;54.50;;;;;;5031878;28;20501;-72
2022/04/12 02:04:27;;;;;;;2.20;1.73;;;14.20;58.90;;;;;;5031684;28;20049;-71
2022/04/12 02:06:53;;;;;;;1.90;1.60;;;13.70;58.60;;;;;;5031970;28;20411;-72
2022/04/12 02:09:20;;;;;;;1.92;1.58;;;14.20;56.90;;;;;;5045967;28;20053;-71
2022/04/12 02:11:47;;;;;;;1.90;1.48;;;14.00;56.50;;;;;;5051632;28;20061;-72
2022/04/12 02:14:13;;;;;;;3.10;1.70;;;14.00;58.80;;;;;;5051606;28;20056;-72
2022/04/12 02:16:41;;;;;;;3.28;1.80;;;14.10;51.00;;;;;;5052247;28;20486;-71
2022/04/12 02:19:09;;;;;;;2.70;1.90;;;;;;;;;;5052294;28;20268;-72
2022/04/12 02:21:35;;;;;;;2.22;1.50;;;14.30;58.90;;;;;;5051266;28;20057;-72
2022/04/12 02:24:02;;;;;;;2.90;1.70;;;;;;;;;;5051851;28;20428;-69
2022/04/12 02:26:29;;;;;;;3.17;1.60;;;14.30;58.60;;;;;;5050590;28;20061;-72
2022/04/12 02:28:56;;;;;;;3.40;1.90;;;14.10;58.70;;;;;;5051212;28;20408;-72
2022/04/12 02:31:23;;;;;;;2.47;1.55;;;14.20;51.80;;;;;;5050933;28;20088;-71
2022/04/12 02:33:51;;;;;;;2.65;1.80;;;14.30;58.80;;;;;;5051168;28;20057;-72
2022/04/12 02:36:17;;;;;;;3.15;1.70;;;13.90;58.30;;;;;;5051205;28;20064;-72
2022/04/12 02:38:44;;;;;;;2.35;1.95;;;14.20;58.80;;;;;;5052341;28;20059;-72
2022/04/12 02:41:11;;;;;;;2.83;1.75;;;14.20;58.40;;;;;;5049592;28;20445;-71
2022/04/12 02:43:38;;;;;;;2.08;1.60;;;14.20;58.40;;;;;;5051893;28;20135;-72
2022/04/12 02:46:05;;;;;;;1.77;1.60;;;;;;;;;;5051159;28;20078;-70
2022/04/12 02:48:32;;;;;;;1.98;1.65;;;14.30;58.80;;;;;;5052112;28;20045;-72
2022/04/12 02:51:00;;;;;;;2.72;1.70;;;13.90;58.40;;;;;;5051797;28;20052;-72
2022/04/12 02:53:26;;;;;;;2.78;1.95;;;14.30;58.80;;;;;;5052139;28;20414;-72
2022/04/12 02:55:53;;;;;;;3.67;1.85;;;;;;;;;;5050614;28;20049;-70
2022/04/12 02:58:20;;;;;;;2.60;1.73;;;14.20;52.90;;;;;;5042804;28;20088;-72
2022/04/12 03:00:47;;;;;;;2.60;1.60;;;13.80;58.10;;;;;;5031874;28;20051;-72
2022/04/12 03:03:13;;;;;;;2.20;1.70;;;14.30;55.60;;;;;;5031913;28;20055;-72
2022/04/12 03:05:40;;;;;;;2.50;1.73;;;14.20;58.20;;;;;;5030835;28;20060;-72
2022/04/12 03:08:08;;;;;;;1.92;1.60;;;14.30;58.60;;;;;;5031888;28;20410;-72
2022/04/12 03:10:35;;;;;;;2.22;1.70;;;;;;;;;;5030205;28;20049;-72
2022/04/12 03:13:02;;;;;;;2.63;1.65;;;14.40;58.60;;;;;;5031864;28;20057;-72
2022/04/12 03:15:29;;;;;;;1.80;1.60;;;14.20;58.60;;;;;;5046896;28;20077;-72
2022/04/12 03:17:56;;;;;;;2.70;2.30;;;;;;;;;;5030474;28;20063;-71
2022/04/12 03:20:22;;;;;;;2.22;1.70;;;13.90;58.10;;;;;;5030260;28;20049;-72
2022/04/12 03:22:49;;;;;;;3.50;2.10;;;13.90;58.10;;;;;;5030183;28;20064;-72
2022/04/12 03:25:18;;;;;;;2.22;1.67;;;14.30;58.70;;;;;;5031655;28;20151;-71
2022/04/12 03:27:44;;;;;;;2.50;1.70;;;14.30;56.50;;;;;;5030593;28;20050;-71
2022/04/12 03:30:12;;;;;;;2.50;1.80;;;13.10;50.20;;;;;;5031227;28;20048;-71
2022/04/12 03:32:39;;;;;;;2.65;1.73;;;14.40;58.30;;;;;;5031736;28;20057;-72
2022/04/12 03:35:06;;;;;;;2.95;2.08;;;14.30;58.50;;;;;;5030530;28;20055;-72
2022/04/12 03:37:33;;;;;;;2.17;1.80;;;14.40;58.30;;;;;;5031558;28;20050;-72
2022/04/12 03:40:00;;;;;;;2.33;1.80;;;14.00;58.10;;;;;;5031585;28;20451;-71
2022/04/12 03:42:28;;;;;;;2.50;1.80;;;14.10;56.40;;;;;;5031145;28;20049;-71
2022/04/12 03:44:54;;;;;;;2.67;1.77;;;14.30;55.50;;;;;;5030514;28;20064;-72
2022/04/12 03:47:21;;;;;;;3.13;1.90;;;14.30;53.20;;;;;;5035751;28;20055;-72
2022/04/12 03:49:48;;;;;;;3.17;1.70;;;;;;;;;;5051333;28;20052;-72
2022/04/12 03:52:15;;;;;;;2.95;1.67;;;14.30;57.10;;;;;;5050184;28;20057;-72
2022/04/12 03:54:42;;;;;;;2.83;1.73;;;14.40;57.40;;;;;;5051247;28;20494;-72
2022/04/12 03:57:08;;;;;;;2.35;1.70;;;14.20;58.20;;;;;;5050194;28;20057;-71
2022/04/12 03:59:36;;;;;;;2.33;1.75;;;14.30;58.30;;;;;;5049984;28;20049;-72
2022/04/12 04:02:03;;;;;;;3.08;1.95;;;14.30;58.00;;;;;;5051553;28;20063;-72
2022/04/12 04:04:30;;;;;;;2.33;1.75;;;14.30;58.50;;;;;;5041498;28;20061;-72
2022/04/12 04:06:57;;;;;;;2.90;2.10;;;;;;;;;;5031577;28;20045;-71
2022/04/12 04:09:24;;;;;;;2.78;2.00;;;13.90;58.30;;;;;;5029767;28;20049;-72
2022/04/12 04:11:51;;;;;;;3.17;1.83;;;14.30;58.30;;;;;;5030236;28;20060;-72
2022/04/12 04:14:18;;;;;;;2.70;1.73;;;14.40;58.50;;;;;;5030286;28;20053;-72
2022/04/12 04:16:46;;;;;;;2.30;1.70;;;14.20;58.40;;;;;;5030330;28;20408;-72
2022/04/12 04:19:13;;;;;;;2.65;1.92;;;;;;;;;;5031134;28;20506;-72
2022/04/12 04:21:40;;;;;;;3.05;1.92;;;14.20;58.40;;;;;;5030942;28;20061;-72
2022/04/12 04:24:07;;;;;;;3.38;1.90;;;14.40;58.50;;;;;;5033438;28;20057;-72
2022/04/12 04:26:34;;;;;;;2.72;1.98;;;14.20;58.10;;;;;;5033796;28;20060;-72
2022/04/12 04:29:01;;;;;;;3.65;1.92;;;14.30;58.20;;;;;;5033483;28;20084;-72
2022/04/12 04:31:28;;;;;;;2.92;2.20;;;14.30;58.20;;;;;;5034460;28;20072;-72
2022/04/12 04:33:56;;;;;;;3.15;2.00;;;14.30;58.50;;;;;;5034697;28;20055;-72
2022/04/12 04:36:23;;;;;;;2.92;2.03;;;14.40;58.40;;;;;;5035639;28;20440;-72
2022/04/12 04:38:50;;;;;;;2.00;1.80;;;;;;;;;;5033534;28;20064;-71
2022/04/12 04:41:17;;;;;;;2.33;1.80;;;;;;;;;;5032880;28;20055;-72
2022/04/12 04:43:45;;;;;;;2.65;1.90;;;;;;;;;;5033205;28;20141;-70
2022/04/12 04:46:13;;;;;;;2.70;1.90;;;14.10;58.20;;;;;;5034468;28;20052;-72
2022/04/12 04:48:41;;;;;;;2.15;1.85;;;;;;;;;;5016988;28;20063;-70
2022/04/12 04:51:09;;;;;;;2.25;1.85;;;14.20;50.70;;;;;;5032775;28;20049;-71
2022/04/12 04:53:37;;;;;;;2.10;1.88;;;;;;;;;;5033937;28;20064;-70
2022/04/12 04:56:04;;;;;;;3.13;2.15;;;14.00;58.30;;;;;;5034610;28;20064;-72
2022/04/12 04:58:31;;;;;;;5.18;2.63;;;14.20;58.20;;;;;;5033280;28;20063;-72
2022/04/12 05:00:58;;;;;;;4.90;1.95;;;;;;;;;;5033008;28;20055;-70
2022/04/12 05:03:27;;;;;;;2.92;2.20;;;14.20;50.70;;;;;;5033967;28;20490;-72
2022/04/12 05:05:53;;;;;;;3.53;2.10;;;14.00;58.00;;;;;;5034355;28;20049;-72
2022/04/12 05:08:21;;;;;;;3.20;2.00;;;14.10;58.00;;;;;;5033921;28;20063;-72
2022/04/12 05:10:49;;;;;;;3.30;2.10;;;;;;;;;;5033625;28;20050;-72
2022/04/12 05:13:15;;;;;;;2.90;2.10;;;13.90;58.00;;;;;;5032936;28;20065;-72
2022/04/12 05:15:43;;;;;;;2.35;2.05;;;;;;;;;;5034189;28;20438;-70
2022/04/12 05:18:10;;;;;;;2.45;1.90;;;14.30;58.20;;;;;;5032834;28;20108;-72
2022/04/12 05:20:37;;;;;;;2.97;2.03;;;14.10;58.40;;;;;;5033578;28;20407;-71
2022/04/12 05:23:04;;;;;;;2.72;2.10;;;;;;;;;;5032714;28;20107;-72
2022/04/12 05:25:32;;;;;;;3.47;2.30;;;14.20;50.70;;;;;;5032573;28;20057;-71
2022/04/12 05:27:59;;;;;;;3.25;2.25;;;;;;;;;;5051295;28;20486;-70
2022/04/12 05:30:26;;;;;;;3.08;2.17;;;14.10;58.20;;;;;;5053201;28;20051;-72
2022/04/12 05:32:52;;;;;;;3.25;2.05;;;14.20;58.00;;;;;;5053520;28;20095;-72
2022/04/12 05:35:19;;;;;;;2.75;2.10;;;;;;;;;;5051109;28;20055;-71
2022/04/12 05:37:48;;;;;;;3.13;2.10;;;14.40;58.20;;;;;;5052467;28;20065;-72
2022/04/12 05:40:15;;;;;;;2.92;2.15;;;14.50;57.40;;;;;;5052198;28;20056;-72
2022/04/12 05:42:43;;;;;;;3.03;2.45;;;14.30;58.00;;;;;;5051816;28;20056;-72
2022/04/12 05:45:11;;;;;;;4.90;2.20;;;14.30;58.00;;;;;;5052179;28;20393;-72
2022/04/12 05:47:42;;;;;;;2.85;2.17;;;14.50;54.40;;;;;;5052100;28;20051;-72
2022/04/12 05:50:10;;;;;;;3.20;1.95;;;14.30;58.30;;;;;;5051811;28;20060;-72
2022/04/12 05:52:38;;;;;;;3.55;2.08;;;;;;;;;;5051938;28;20063;-72
2022/04/12 05:55:07;;;;;;;2.28;1.90;;;14.10;58.20;;;;;;5035424;28;20053;-72
2022/04/12 05:57:36;;;;;;;3.03;2.30;;;14.30;53.30;;;;;;5051832;28;20053;-71
2022/04/12 06:00:06;;;;;;;2.97;1.95;;;14.10;57.80;;;;;;5049922;28;20048;-72
2022/04/12 06:02:33;;;;;;;2.92;2.15;;;;;;;;;;5051985;28;20053;-72
2022/04/12 06:05:00;;;;;;;2.60;2.00;;;14.20;57.80;;;;;;5051914;28;20409;-71
2022/04/12 06:07:30;;;;;;;2.55;2.17;;;14.30;58.10;;;;;;5051428;28;20052;-72
2022/04/12 06:09:58;;;;;;;3.67;2.10;;;;;;;;;;5051598;28;20498;-72
2022/04/12 06:12:24;;;;;;;2.92;2.03;;;14.20;57.80;;;;;;5051438;28;20454;-72
2022/04/12 06:14:51;;;;;;;2.55;2.20;;;14.30;58.10;;;;;;5051442;28;20056;-72
2022/04/12 06:17:19;;;;;;;2.40;2.00;;;14.30;54.10;;;;;;5050871;28;20051;-72
2022/04/12 06:19:46;;;;;;;2.50;2.00;;;14.40;57.90;;;;;;5051303;28;20409;-72
2022/04/12 06:22:13;;;;;;;2.97;2.10;;;;;;;;;;5052604;28;20049;-71
2022/04/12 06:24:40;;;;;;;2.92;2.38;;;14.40;58.00;;;;;;5052706;28;20048;-70
2022/04/12 06:27:07;;;;;;;2.53;1.90;;;14.40;50.40;;;;;;5051330;28;20129;-70
2022/04/12 06:29:34;;;;;;;2.42;2.00;;;14.30;57.70;;;;;;5050934;28;20130;-70
2022/04/12 06:32:05;;;;;;;2.85;1.83;;;14.50;58.10;;;;;;5050642;28;20053;-70
2022/04/12 06:34:33;;;;;;;2.35;1.65;;;14.50;58.00;;;;;;5051322;28;20063;-69
2022/04/12 06:36:59;;;;;;;3.25;1.92;;;14.50;57.70;;;;;;5051380;28;20052;-69
2022/04/12 06:39:27;;;;;;;2.75;2.00;;;;;;;;;;5052114;28;20049;-69
2022/04/12 06:41:54;;;;;;;3.03;1.88;;;14.40;57.60;;;;;;5051153;28;20053;-69
2022/04/12 06:44:20;;;;;;;2.50;2.10;;;14.30;57.80;;;;;;5051245;28;20460;-69
2022/04/12 06:46:47;;;;;;;2.83;1.92;;;14.50;57.40;;;;;;5051685;28;20052;-70
2022/04/12 06:49:14;;;;;;;2.00;1.63;;;14.50;57.90;;;;;;5044539;28;20067;-69
2022/04/12 06:51:42;;;;;;;2.13;1.90;;;14.50;50.30;;;;;;5030665;28;20399;-69
2022/04/12 06:54:09;;;;;;;1.92;1.50;;;14.70;57.70;;;;;;5031302;28;20057;-69
2022/04/12 06:56:35;;;;;;;2.05;1.60;;;14.60;55.00;;;;;;5030967;28;20061;-70
2022/04/12 06:59:02;;;;;;;2.03;1.70;;;14.60;57.50;;;;;;5031579;28;20395;-70
2022/04/12 07:01:29;;;;;;;2.72;1.95;;;;;;;;;;5014387;28;20056;-69
2022/04/12 07:03:56;;;;;;;2.05;1.73;;;14.30;57.10;;;;;;5030880;28;20064;-70
2022/04/12 07:06:22;;;;;;;2.65;1.80;;;14.60;57.50;;;;;;5032119;28;20057;-69
2022/04/12 07:08:50;;;;;;;2.83;1.70;;;14.70;57.50;;;;;;5032303;28;20053;-69
2022/04/12 07:11:17;;;;;;;2.22;1.63;;;;;;;;;;5030570;28;20502;-69
2022/04/12 07:13:44;;;;;;;2.75;1.90;;;14.70;57.50;;;;;;5034901;28;20053;-69
2022/04/12 07:16:11;;;;;;;2.25;1.52;;;14.70;57.50;;;;;;5051932;28;20401;-67
2022/04/12 07:18:40;;;;;;;2.15;1.70;;;;;;;;;;5051839;28;20068;-71
2022/04/12 07:21:07;;;;;;;2.60;1.83;;;14.70;57.80;;;;;;5050736;28;20056;-71
2022/04/12 07:23:35;;;;;;;2.20;1.80;;;14.70;57.50;;;;;;5049052;28;20147;-71
2022/04/12 07:26:03;;;;;;;2.60;1.90;;;14.70;50.30;;;;;;5050804;28;20064;-72
2022/04/12 07:28:30;;;;;;;7.18;1.85;;;;;;;;;;5052052;28;20133;-71
2022/04/12 07:30:57;;;;;;;2.92;1.90;;;14.30;57.50;;;;;;5040050;28;20041;-71
2022/04/12 07:33:24;;;;;;;3.30;2.08;;;;;;;;;;5040632;28;20505;-71
2022/04/12 07:35:50;;;;;;;3.33;2.03;;;14.70;55.60;;;;;;5040553;28;20120;-71
2022/04/12 07:38:17;;;;;;;2.95;2.00;;;14.70;57.60;;;;;;5040065;28;20123;-71
2022/04/12 07:40:44;;;;;;;2.58;1.88;;;14.80;57.60;;;;;;5041006;28;20059;-71
2022/04/12 07:43:12;;;;;;;2.17;1.80;;;14.30;51.60;;;;;;5040734;28;20409;-71
2022/04/12 07:45:38;;;;;;;2.58;1.90;;;14.90;57.50;;;;;;5039636;28;20045;-70
2022/04/12 07:48:06;;;;;;;3.00;1.92;;;14.90;57.50;;;;;;5040776;28;20045;-71
2022/04/12 07:50:33;;;;;;;4.78;2.08;;;15.10;57.60;;;;;;5033845;28;20050;-71
2022/04/12 07:53:00;;;;;;;2.88;1.83;;;15.00;57.60;;;;;;5030764;28;20049;-71
2022/04/12 07:55:27;;;;;;;3.22;1.90;;;;;;;;;;5046806;28;20409;-70
2022/04/12 07:57:53;;;;;;;3.65;1.80;;;15.20;57.30;;;;;;5052406;28;20504;-71
2022/04/12 08:00:21;;;;;;;2.65;1.80;;;15.30;56.90;;;;;;5055128;28;20067;-72
2022/04/12 08:02:48;;;;;;;3.03;1.88;;;15.30;56.80;;;;;;5052632;28;20048;-70
2022/04/12 08:05:15;;;;;;;3.10;1.95;;;;;;;;;;5044590;28;20041;-70
2022/04/12 08:07:47;;;;;;;2.45;1.70;;;14.60;56.20;;;;;;5054114;28;20075;-71
2022/04/12 08:10:14;;;;;;;2.00;1.70;;;15.30;56.30;;;;;;5037415;28;20140;-71
2022/04/12 08:12:40;;;;;;;3.00;1.60;;;15.50;56.60;;;;;;5034155;28;20055;-71
2022/04/12 08:15:08;;;;;;;3.05;1.65;;;15.60;51.80;;;;;;5035154;28;20516;-71
2022/04/12 08:17:36;;;;;;;1.88;1.48;;;16.20;56.80;;;;;;5033905;28;20129;-71
2022/04/12 08:20:03;;;;;;;2.85;1.98;;;15.80;56.20;;;;;;5034804;28;20054;-72
2022/04/12 08:22:30;;;;;;;2.10;1.60;;;15.30;56.10;;;;;;5034127;28;20068;-71
2022/04/12 08:24:57;;;;;;;3.70;1.70;;;15.90;56.50;;;;;;5033845;28;20060;-72
2022/04/12 08:27:24;;;;;;;2.03;1.60;;;;;;;;;;5034077;28;20076;-71
2022/04/12 08:29:50;;;;;;;3.13;1.90;;;16.20;56.20;;;;;;5040671;28;20051;-71
2022/04/12 08:32:18;;;;;;;2.83;2.00;;;;;;;;;;5053166;28;20079;-71
2022/04/12 08:34:46;;;;;;;2.05;1.75;;;16.10;56.10;;;;;;5020049;28;20053;-71
2022/04/12 08:37:12;;;;;;;2.92;1.90;;;17.10;56.40;;;;;;5033800;28;20053;-72
2022/04/12 08:39:39;;;;;;;2.25;1.73;;;16.20;55.80;;;;;;5033272;28;20056;-71
2022/04/12 08:42:06;;;;;;;2.50;2.00;;;16.40;50.50;;;;;;5034522;28;20175;-71
2022/04/12 08:44:34;;;;;;;2.13;1.80;;;16.30;56.00;;;;;;5035080;28;20379;-71
2022/04/12 09:09:14;;;;;;;2.08;1.65;;;16.60;55.70;;;;;;5033962;28;20072;-69
2022/04/12 09:11:41;;;;;;;2.17;1.90;;;16.60;48.70;;;;;;5033958;28;20063;-68
2022/04/12 09:14:08;;;;;;;2.30;1.88;;;16.70;55.60;;;;;;5033144;28;20060;-69
2022/04/12 09:16:35;;;;;;;2.30;1.80;;;16.80;55.60;;;;;;5034376;28;20399;-68
2022/04/12 09:19:02;;;;;;;2.97;1.92;;;16.10;55.10;;;;;;5033086;28;20137;-68
2022/04/12 09:21:30;;;;;;;4.15;2.08;;;16.60;55.30;;;;;;5033941;28;20049;-70
2022/04/12 09:23:58;;;;;;;2.83;1.98;;;16.50;55.20;;;;;;5045256;28;20061;-69
2022/04/12 09:26:27;;;;;;;3.03;1.80;;;16.80;48.90;;;;;;5045389;28;20046;-69
2022/04/12 09:28:54;;;;;;;4.85;1.67;;;16.80;55.40;;;;;;5044759;28;20403;-69
2022/04/12 09:31:21;;;;;;;2.45;2.05;;;16.90;52.70;;;;;;5023006;28;20042;-68
2022/04/12 09:33:49;;;;;;;3.22;2.00;;;16.90;55.50;;;;;;5040472;28;20045;-68
2022/04/12 09:36:16;;;;;;;3.30;1.85;;;17.00;55.50;;;;;;5041973;28;20402;-69
2022/04/12 09:38:44;;;;;;;3.92;1.60;;;17.00;55.50;;;;;;5043257;28;20125;-68
2022/04/12 09:41:12;;;;;;;3.70;1.75;;;16.90;55.20;;;;;;5032400;28;20137;-68
2022/04/12 09:43:52;;;;;;;2.20;1.80;;;16.90;55.20;;;;;;5035121;28;20059;-69
2022/04/12 09:46:19;;;;;;;2.17;1.77;;;16.90;55.50;;;;;;5044408;28;20064;-68
2022/04/12 09:48:47;;;;;;;3.22;1.60;;;16.90;55.50;;;;;;5047504;28;20052;-68
2022/04/12 09:51:14;;;;;;;2.80;1.90;;;;;;;;;;5040430;28;20053;-70
2022/04/12 09:53:42;;;;;;;3.20;2.00;;;16.90;55.30;;;;;;5039454;28;20041;-68
2022/04/12 09:56:15;;;;;;;2.20;1.73;;;17.70;55.60;;;;;;5044834;28;20454;-68
2022/04/12 09:58:44;;;;;;;2.58;1.73;;;17.70;55.50;;;;;;5040067;28;20049;-69
2022/04/12 10:01:11;;;;;;;3.17;1.92;;;;;;;;;;5047581;28;20053;-69
2022/04/12 10:03:38;;;;;;;2.65;1.80;;;;;;;;;;5041241;28;20044;-69
2022/04/12 10:06:05;;;;;;;2.83;1.60;;;16.90;55.30;;;;;;5047833;28;20045;-68
2022/04/12 10:08:32;;;;;;;2.75;1.67;;;17.40;55.50;;;;;;5044884;28;20068;-69
2022/04/12 10:10:58;;;;;;;2.30;1.60;;;16.40;54.90;;;;;;5032770;28;20049;-70
2022/04/12 10:13:25;;;;;;;5.78;1.67;;;17.10;55.30;;;;;;5044255;28;20048;-68
2022/04/12 10:15:53;;;;;;;3.03;1.63;;;17.00;48.90;;;;;;5040703;28;20040;-70
2022/04/12 10:18:21;;;;;;;2.58;1.70;;;;;;;;;;5052218;28;20049;-69
2022/04/12 10:20:48;;;;;;;3.70;1.70;;;16.90;55.40;;;;;;5050702;28;20049;-71
2022/04/12 10:23:16;;;;;;;2.63;1.90;;;17.00;48.90;;;;;;5051722;28;20065;-70
2022/04/12 10:25:43;;;;;;;3.60;1.90;;;17.20;52.20;;;;;;5037625;28;20478;-70
2022/04/12 10:28:09;;;;;;;2.28;1.70;;;17.10;55.60;;;;;;5032452;28;20053;-70
2022/04/12 10:30:36;;;;;;;2.65;1.88;;;18.00;56.00;;;;;;5031064;28;20511;-71
2022/04/12 10:33:05;;;;;;;2.50;1.80;;;17.80;54.30;;;;;;5031179;28;20053;-71
2022/04/12 10:36:02;;;;;;;2.47;1.70;;;17.20;55.20;;;;;;5031353;28;20057;-71
2022/04/12 10:38:38;;;;;;;3.45;1.80;;;17.00;55.50;;;;;;5032886;28;20401;-70
2022/04/12 10:41:12;;;;;;;1.70;1.33;;;17.20;55.50;;;;;;5048759;28;20067;-71
2022/04/12 10:43:40;;;;;;;3.70;1.70;;;17.20;55.70;;;;;;5051353;28;20061;-70
2022/04/12 10:46:07;;;;;;;2.38;1.67;;;17.10;55.80;;;;;;5050813;28;20056;-68
2022/04/12 10:48:38;;;;;;;1.73;1.50;;;17.00;48.80;;;;;;5052716;28;20397;-70
2022/04/12 10:51:06;;;;;;;2.45;1.70;;;17.10;49.00;;;;;;5050756;28;20608;-70
2022/04/12 10:53:54;;;;;;;2.03;1.50;;;17.30;56.00;;;;;;5052162;28;20056;-70
2022/04/12 10:56:23;;;;;;;1.98;1.40;;;17.30;55.60;;;;;;5052274;28;20061;-72
2022/04/12 10:58:50;;;;;;;3.53;1.58;;;16.90;55.40;;;;;;5050983;28;20596;-71
2022/04/12 11:01:28;;;;;;;2.70;1.42;;;16.70;55.60;;;;;;5050130;28;20049;-71
2022/04/12 11:03:56;;;;;;;1.77;1.48;;;17.70;56.00;;;;;;5041910;28;20057;-71
2022/04/12 11:06:23;;;;;;;2.92;1.50;;;17.30;55.70;;;;;;5042199;28;20553;-71
2022/04/12 11:08:51;;;;;;;1.90;1.60;;;17.00;55.40;;;;;;5043679;28;20137;-70
2022/04/12 11:11:42;;;;;;;2.97;1.70;;;17.20;49.10;;;;;;5036164;28;20080;-70
2022/04/12 11:14:22;;;;;;;2.00;1.50;;;17.30;55.50;;;;;;5029266;28;20585;-70
2022/04/12 11:16:49;;;;;;;1.77;1.52;;;17.20;56.00;;;;;;5032887;28;20041;-71
2022/04/12 11:19:21;;;;;;;5.40;1.58;;;17.50;55.90;;;;;;5042078;28;20056;-70
2022/04/12 11:22:02;;;;;;;2.20;1.70;;;17.30;55.80;;;;;;5040232;28;20079;-69
2022/04/12 11:24:29;;;;;;;1.55;1.40;;;17.30;55.80;;;;;;5040938;28;20044;-70
2022/04/12 11:27:06;;;;;;;1.90;1.55;;;17.30;55.80;;;;;;5040517;28;20053;-70
2022/04/12 11:29:33;;;;;;;1.52;1.30;;;16.90;55.50;;;;;;5039013;28;20071;-68
2022/04/12 11:32:00;;;;;;;2.88;1.70;;;17.40;56.00;;;;;;5045129;28;20041;-68
2022/04/12 11:34:28;;;;;;;2.22;1.75;;;17.00;55.80;;;;;;5054594;28;20052;-70
2022/04/12 11:36:56;;;;;;;2.50;1.80;;;17.20;55.80;;;;;;5054568;28;20049;-70
2022/04/12 11:39:24;;;;;;;3.15;1.98;;;17.60;56.20;;;;;;5054308;28;20051;-71
2022/04/12 11:41:51;;;;;;;3.30;2.20;;;;;;;;;;5054102;28;20052;-72
2022/04/12 11:44:21;;;;;;;3.05;2.03;;;16.80;55.60;;;;;;5045595;28;20059;-70
2022/04/12 11:46:54;;;;;;;3.08;2.20;;;17.30;56.10;;;;;;5036197;28;20054;-72
2022/04/12 11:49:21;;;;;;;4.75;2.00;;;17.30;56.10;;;;;;5034324;28;20064;-73
2022/04/12 11:51:49;;;;;;;5.18;2.10;;;17.30;55.70;;;;;;5035524;28;20056;-69
2022/04/12 11:54:22;;;;;;;3.13;2.38;;;17.60;56.00;;;;;;5035680;28;20057;-69
2022/04/12 11:56:53;;;;;;;4.40;2.00;;;17.40;55.80;;;;;;5035198;28;20584;-70
2022/04/12 11:59:20;;;;;;;2.40;1.70;;;17.60;56.00;;;;;;5034617;28;20058;-69
2022/04/12 12:01:46;;;;;;;4.43;2.00;;;18.20;56.40;;;;;;5035553;28;20047;-68
2022/04/12 12:04:13;;;;;;;2.67;1.67;;;17.30;56.10;;;;;;5052454;28;20048;-69
2022/04/12 12:06:55;;;;;;;2.30;1.65;;;17.50;55.80;;;;;;5053778;28;20064;-69
2022/04/12 12:09:22;;;;;;;1.80;1.60;;;17.20;56.00;;;;;;5054378;28;20057;-69
2022/04/12 12:11:49;;;;;;;2.15;1.63;;;16.50;52.60;;;;;;5050565;28;20045;-68
2022/04/12 12:14:16;;;;;;;3.85;1.80;;;17.70;56.00;;;;;;5042241;28;20791;-68
2022/04/12 12:16:42;;;;;;;3.00;1.90;;;16.30;55.40;;;;;;5036630;28;20053;-67
2022/04/12 12:19:14;;;;;;;2.28;1.63;;;17.10;55.60;;;;;;5033639;28;20056;-70
2022/04/12 12:21:44;;;;;;;2.25;1.40;;;17.10;56.00;;;;;;5035069;28;20049;-70
2022/04/12 12:24:12;;;;;;;2.65;1.50;;;17.40;55.70;;;;;;5050630;28;20056;-68
2022/04/12 12:26:41;;;;;;;2.15;1.60;;;17.30;56.10;;;;;;5054170;28;20060;-67
2022/04/12 12:29:08;;;;;;;2.67;1.65;;;17.40;56.00;;;;;;5053595;28;20532;-67
2022/04/12 12:31:42;;;;;;;2.53;1.70;;;17.40;56.10;;;;;;5045704;28;20124;-67
2022/04/12 12:34:09;;;;;;;2.70;1.50;;;17.30;56.00;;;;;;5042757;28;20060;-68
2022/04/12 12:36:35;;;;;;;2.38;1.60;;;17.30;55.80;;;;;;5045450;28;20405;-67
2022/04/12 12:39:06;;;;;;;2.00;1.50;;;17.60;56.50;;;;;;5033431;28;20053;-68
2022/04/12 12:41:34;;;;;;;3.35;1.95;;;16.80;55.70;;;;;;5034277;28;20046;-68
2022/04/12 12:44:02;;;;;;;2.78;1.92;;;17.40;55.90;;;;;;5033889;28;20053;-68
2022/04/12 12:46:30;;;;;;;3.65;1.83;;;17.30;56.00;;;;;;5033671;28;20107;-69
2022/04/12 12:49:08;;;;;;;2.03;1.48;;;16.60;55.70;;;;;;5034630;28;20049;-69
2022/04/12 12:51:36;;;;;;;2.88;1.77;;;17.60;55.90;;;;;;5032947;28;20103;-69
2022/04/12 12:54:03;;;;;;;4.43;1.75;;;17.50;56.00;;;;;;5034412;28;20402;-69
2022/04/12 12:56:33;;;;;;;3.30;1.67;;;18.10;56.50;;;;;;5034640;28;20049;-68
2022/04/12 12:59:17;;;;;;;2.53;1.65;;;17.60;56.30;;;;;;5034430;28;20049;-68
2022/04/12 13:01:45;;;;;;;2.25;1.50;;;16.80;55.70;;;;;;5032913;28;20057;-68
2022/04/12 13:04:22;;;;;;;2.40;1.80;;;17.70;55.90;;;;;;5041847;28;20045;-67
2022/04/12 13:06:59;;;;;;;2.00;1.63;;;17.60;52.40;;;;;;5053023;28;20053;-68
2022/04/12 13:09:26;;;;;;;2.10;1.50;;;17.50;55.80;;;;;;5052562;28;20053;-68
2022/04/12 13:11:53;;;;;;;3.75;1.70;;;17.50;55.80;;;;;;5053914;28;20052;-68
2022/04/12 13:14:21;;;;;;;3.15;1.80;;;17.50;55.50;;;;;;5054108;28;20049;-68
2022/04/12 13:16:47;;;;;;;2.65;1.50;;;17.60;56.00;;;;;;5053883;28;20041;-69
2022/04/12 13:19:14;;;;;;;1.70;1.42;;;17.80;56.00;;;;;;5052859;28;20478;-68
2022/04/12 13:21:42;;;;;;;2.65;1.75;;;17.80;56.30;;;;;;5053554;28;20044;-69
2022/04/12 13:24:09;;;;;;;3.05;1.85;;;;;;;;;;5049227;28;20077;-69
2022/04/12 13:26:36;;;;;;;2.60;1.80;;;17.60;55.90;;;;;;5034312;28;20049;-70
2022/04/12 13:29:03;;;;;;;1.85;1.40;;;17.60;55.60;;;;;;5033841;28;20056;-70
2022/04/12 13:31:31;;;;;;;2.03;1.70;;;17.90;56.20;;;;;;5033596;28;20049;-70
2022/04/12 13:33:57;;;;;;;3.65;1.75;;;17.70;56.20;;;;;;5032189;28;20504;-70